Time;durP1;ratioP1;P1;durP2;ratioP2;P2;SDS_P1;SDS_P2;PMS_P1;PMS_P2;Temp;Humidity;BMP_temperature;BMP_pressure;BME280_temperature;BME280_humidity;BME280_pressure;Samples;Min_cycle;Max_cycle;Signal;HPM_P1;HPM_P2
2022/10/25 00:01:44;;;;;;;16.07;4.90;;;;;;;-145.18;100.00;46658.44;5092991;28;20032;-72
2022/10/25 00:04:10;;;;;;;12.73;5.70;;;;;;;-145.18;100.00;46650.63;5092636;28;20075;-71
2022/10/25 00:06:35;;;;;;;14.27;4.80;;;;;;;-145.18;100.00;46652.59;5092646;28;20079;-72
2022/10/25 00:09:00;;;;;;;14.33;4.87;;;;;;;-145.18;100.00;46652.59;5092773;28;20206;-72
2022/10/25 00:11:28;;;;;;;17.20;5.13;;;;;;;-145.18;100.00;46654.53;5092976;28;20139;-71
2022/10/25 00:13:56;;;;;;;14.83;4.77;;;;;;;-145.18;100.00;46656.50;5092850;28;20051;-72
2022/10/25 00:16:24;;;;;;;16.70;5.50;;;;;;;-145.18;100.00;46654.53;5092538;28;20242;-71
2022/10/25 00:18:50;;;;;;;16.37;5.03;;;;;;;-145.18;100.00;46656.50;5092965;28;20408;-71
2022/10/25 00:21:16;;;;;;;17.53;5.23;;;;;;;-145.18;100.00;46656.50;5092470;28;20020;-71
2022/10/25 00:23:41;;;;;;;20.80;6.33;;;;;;;-145.18;100.00;46658.44;5074549;28;20038;-71
2022/10/25 00:26:09;;;;;;;21.27;4.20;;;;;;;-145.18;100.00;46658.44;5092403;28;20028;-71
2022/10/25 00:28:34;;;;;;;18.13;4.20;;;;;;;-145.18;100.00;46656.50;5092863;28;20073;-71
2022/10/25 00:31:05;;;;;;;11.30;4.20;;;;;;;-145.18;100.00;46656.50;5091944;28;20028;-72
2022/10/25 00:33:31;;;;;;;21.40;4.77;;;;;;;-145.18;100.00;46658.44;5092796;28;20103;-71
2022/10/25 00:36:12;;;;;;;20.80;4.20;;;;;;;-145.18;100.00;46658.44;5092125;28;20081;-72
2022/10/25 00:38:38;;;;;;;19.20;4.60;;;;;;;-145.18;100.00;46658.44;5092845;28;20386;-71
2022/10/25 00:41:05;;;;;;;21.03;4.17;;;;;;;-145.18;100.00;46654.53;5092127;28;20028;-72
2022/10/25 00:43:46;;;;;;;20.03;4.50;;;;;;;-145.18;100.00;46656.50;5092327;28;20028;-72
2022/10/25 00:46:22;;;;;;;20.63;4.37;;;;;;;-145.18;100.00;46660.41;5091954;28;20020;-72
2022/10/25 00:49:00;;;;;;;17.55;4.00;;;;;;;-145.18;100.00;46652.59;5092265;28;20030;-71
2022/10/25 00:51:36;;;;;;;23.63;4.57;;;;;;;-145.18;100.00;46658.44;5092211;28;20028;-71
2022/10/25 00:54:02;;;;;;;;;;;;;;;-145.18;100.00;46660.41;5092548;28;20495;-71
2022/10/25 00:56:32;;;;;;;19.48;3.58;;;;;;;-145.18;100.00;46658.44;5091766;28;19912;-71
2022/10/25 00:59:03;;;;;;;14.30;3.60;;;;;;;-145.18;100.00;46656.50;5091944;28;20056;-72
2022/10/25 01:01:28;;;;;;;21.03;4.27;;;;;;;-145.18;100.00;46656.50;5092080;28;20024;-72
2022/10/25 01:03:58;;;;;;;19.10;4.40;;;;;;;-145.18;100.00;46654.53;5091504;28;20374;-72
2022/10/25 01:06:36;;;;;;;20.43;4.50;;;;;;;-145.18;100.00;46662.34;5091593;28;20101;-72
2022/10/25 01:09:03;;;;;;;19.90;3.70;;;;;;;-145.18;100.00;46660.41;5091726;28;20029;-72
2022/10/25 01:11:28;;;;;;;20.43;4.10;;;;;;;-145.18;100.00;46660.41;5091891;28;20447;-71
2022/10/25 01:13:54;;;;;;;29.10;4.80;;;;;;;-145.18;100.00;46658.44;5091767;28;20032;-71
2022/10/25 01:16:30;;;;;;;20.67;4.80;;;;;;;-145.18;100.00;46656.50;5091498;28;20036;-72
2022/10/25 01:19:14;;;;;;;;;;;;;;;-145.18;100.00;46662.34;5092103;28;20032;-71
2022/10/25 01:21:49;;;;;;;24.73;4.23;;;;;;;-145.18;100.00;46656.50;5091656;28;19919;-72
2022/10/25 01:24:26;;;;;;;22.53;3.93;;;;;;;-145.18;100.00;46658.44;5091494;28;20110;-72
2022/10/25 01:27:10;;;;;;;24.63;4.13;;;;;;;-145.18;100.00;46660.41;5091655;28;20784;-72
2022/10/25 01:29:38;;;;;;;15.20;3.50;;;;;;;-145.18;100.00;46654.53;5091645;28;20047;-71
2022/10/25 01:32:07;;;;;;;23.63;4.13;;;;;;;-145.18;100.00;46652.59;5090339;28;20118;-72
2022/10/25 01:34:36;;;;;;;21.67;4.20;;;;;;;-145.18;100.00;46666.25;5091605;28;20044;-71
2022/10/25 01:37:20;;;;;;;21.80;4.07;;;;;;;-145.18;100.00;46658.44;5090883;28;20165;-71
2022/10/25 01:40:08;;;;;;;24.57;3.70;;;;;;;-145.18;100.00;46656.50;5091514;28;20035;-71
2022/10/25 01:42:36;;;;;;;17.07;3.13;;;;;;;-145.18;100.00;46662.34;5091352;28;20040;-71
2022/10/25 01:45:21;;;;;;;22.17;4.93;;;;;;;-145.18;100.00;46660.41;5090853;28;20031;-71
2022/10/25 01:47:58;;;;;;;25.92;3.67;;;;;;;-145.18;100.00;46658.44;5091011;28;20032;-71
2022/10/25 01:50:27;;;;;;;16.77;3.57;;;;;;;-145.18;100.00;46662.34;5091180;28;20395;-71
2022/10/25 01:52:52;;;;;;;20.80;3.63;;;;;;;-145.18;100.00;46656.50;5090806;28;20032;-71
2022/10/25 01:55:21;;;;;;;18.50;3.40;;;;;;;-145.18;100.00;46664.31;5090448;28;20039;-71
2022/10/25 01:57:58;;;;;;;23.67;3.87;;;;;;;-145.18;100.00;46664.31;5090873;28;20023;-71
2022/10/25 02:00:25;;;;;;;22.77;4.47;;;;;;;-145.18;100.00;46656.50;5090950;28;20035;-71
2022/10/25 02:02:59;;;;;;;19.70;3.50;;;;;;;-145.18;100.00;46664.31;5090397;28;20048;-71
2022/10/25 02:05:42;;;;;;;20.03;3.80;;;;;;;-145.18;100.00;46658.44;5090862;28;20035;-71
2022/10/25 02:08:17;;;;;;;24.37;3.67;;;;;;;-145.18;100.00;46658.44;5090371;28;20134;-71
2022/10/25 02:11:20;;;;;;;17.20;3.40;;;;;;;-145.18;100.00;46660.41;5090887;28;20039;-71
2022/10/25 02:14:03;;;;;;;12.73;3.30;;;;;;;-145.18;100.00;46656.50;5090566;28;20088;-71
2022/10/25 02:17:02;;;;;;;18.20;3.50;;;;;;;-145.18;100.00;46654.53;5090637;28;20381;-71
2022/10/25 02:19:32;;;;;;;18.77;3.67;;;;;;;-145.18;100.00;46658.44;5090853;28;20028;-71
2022/10/25 02:22:00;;;;;;;19.90;3.63;;;;;;;-145.18;100.00;46658.44;5090059;28;20123;-71
2022/10/25 02:24:27;;;;;;;13.93;3.83;;;;;;;-145.18;100.00;46664.31;5090319;28;20024;-71
2022/10/25 02:26:54;;;;;;;16.97;3.63;;;;;;;-145.18;100.00;46660.41;5090436;28;20036;-71
2022/10/25 02:29:22;;;;;;;15.97;3.70;;;;;;;-145.18;100.00;46664.31;5090340;28;20468;-71
2022/10/25 02:31:47;;;;;;;23.47;4.23;;;;;;;-145.18;100.00;46656.50;5090339;28;20060;-71
2022/10/25 02:34:13;;;;;;;15.40;3.90;;;;;;;-145.18;100.00;46656.50;5090301;28;20079;-71
2022/10/25 02:36:38;;;;;;;22.83;3.73;;;;;;;-145.18;100.00;46660.41;5090128;28;20136;-71
2022/10/25 02:39:05;;;;;;;16.07;4.17;;;;;;;-145.18;100.00;46664.31;5090149;28;20035;-71
2022/10/25 02:41:32;;;;;;;20.20;3.33;;;;;;;-145.18;100.00;46658.44;5090338;28;20184;-71
2022/10/25 02:43:58;;;;;;;19.90;3.83;;;;;;;-145.18;100.00;46658.44;5089165;28;20050;-71
2022/10/25 02:46:23;;;;;;;13.57;3.43;;;;;;;-145.18;100.00;46660.41;5090132;28;20507;-71
2022/10/25 02:48:49;;;;;;;19.27;4.00;;;;;;;-145.18;100.00;46658.44;5090052;28;20441;-71
2022/10/25 02:51:16;;;;;;;20.13;4.17;;;;;;;-145.18;100.00;46658.44;5089772;28;20081;-71
2022/10/25 02:53:42;;;;;;;17.80;5.30;;;;;;;-145.18;100.00;46662.34;5090219;28;20497;-71
2022/10/25 02:56:14;;;;;;;18.50;4.00;;;;;;;-145.18;100.00;46660.41;5090055;28;20085;-72
2022/10/25 02:58:41;;;;;;;20.57;4.30;;;;;;;-145.18;100.00;46660.41;5071838;28;20495;-72
2022/10/25 03:03:42;;;;;;;18.95;4.35;;;;;;;-145.18;100.00;46654.53;4528435;23;20047;-72
2022/10/25 03:06:09;;;;;;;18.17;3.40;;;;;;;-145.18;100.00;46656.50;5098870;28;20079;-71
2022/10/25 03:08:35;;;;;;;17.07;3.93;;;;;;;-145.18;100.00;46656.50;5090208;28;20028;-71
2022/10/25 03:11:01;;;;;;;16.20;4.00;;;;;;;-145.18;100.00;46656.50;5089849;28;20373;-71
2022/10/25 03:13:27;;;;;;;16.07;4.33;;;;;;;-145.18;100.00;46662.34;5090083;28;20047;-71
2022/10/25 03:15:52;;;;;;;17.27;4.30;;;;;;;-145.18;100.00;46662.34;5090178;28;20036;-71
2022/10/25 03:18:17;;;;;;;18.07;4.10;;;;;;;-145.18;100.00;46658.44;5089878;28;20036;-71
2022/10/25 03:20:43;;;;;;;15.33;3.27;;;;;;;-145.18;100.00;46658.44;5089816;28;20085;-71
2022/10/25 03:23:10;;;;;;;24.97;3.90;;;;;;;-145.18;100.00;46662.34;5089580;28;20369;-71
2022/10/25 03:25:35;;;;;;;18.37;3.70;;;;;;;-145.18;100.00;46658.44;5090201;28;20525;-72
2022/10/25 03:28:01;;;;;;;23.17;5.47;;;;;;;-145.18;100.00;46658.44;5089844;28;20124;-71
2022/10/25 03:30:27;;;;;;;17.23;3.93;;;;;;;-145.18;100.00;46664.31;5090189;28;20036;-71
2022/10/25 03:32:53;;;;;;;17.27;4.37;;;;;;;-145.18;100.00;46656.50;5089857;28;20507;-72
2022/10/25 03:35:19;;;;;;;16.03;3.60;;;;;;;-145.18;100.00;46660.41;5089605;28;20043;-71
2022/10/25 03:37:44;;;;;;;17.10;4.30;;;;;;;-145.18;100.00;46658.44;5089884;28;20049;-70
2022/10/25 03:40:10;;;;;;;20.60;6.03;;;;;;;-145.18;100.00;46662.34;5089635;28;20441;-71
2022/10/25 03:42:35;;;;;;;13.90;4.03;;;;;;;-145.18;100.00;46658.44;5087959;28;20042;-71
2022/10/25 03:45:01;;;;;;;17.60;4.73;;;;;;;-145.18;100.00;46660.41;5085898;28;20047;-72
2022/10/25 03:47:26;;;;;;;21.07;4.83;;;;;;;-145.18;100.00;46656.50;5105038;28;20028;-71
2022/10/25 03:49:52;;;;;;;15.37;4.17;;;;;;;-145.18;100.00;46656.50;5079861;28;20028;-71
2022/10/25 03:52:17;;;;;;;16.53;3.80;;;;;;;-145.18;100.00;46654.53;5089132;28;20040;-71
2022/10/25 03:54:43;;;;;;;18.67;4.60;;;;;;;-145.18;100.00;46658.44;5090366;28;20154;-71
2022/10/25 03:57:08;;;;;;;16.70;3.90;;;;;;;-145.18;100.00;46662.34;5089231;28;20040;-71
2022/10/25 03:59:33;;;;;;;15.97;4.00;;;;;;;-145.18;100.00;46658.44;5100571;28;20043;-72
2022/10/25 04:02:00;;;;;;;19.43;4.70;;;;;;;-145.18;100.00;46658.44;5113353;27;20542;-72
2022/10/25 04:04:25;;;;;;;19.10;4.30;;;;;;;-145.18;100.00;46662.34;5121314;27;20503;-72
2022/10/25 04:06:51;;;;;;;19.33;5.10;;;;;;;-145.18;100.00;46658.44;5121932;27;20027;-71
2022/10/25 04:09:16;;;;;;;13.07;4.33;;;;;;;-145.18;100.00;46654.53;5112890;28;20078;-72
2022/10/25 04:11:41;;;;;;;15.67;4.20;;;;;;;-145.18;100.00;46654.53;5113412;28;20080;-71
2022/10/25 04:14:07;;;;;;;15.93;4.13;;;;;;;-145.18;100.00;46658.44;5112585;28;20039;-71
2022/10/25 04:16:32;;;;;;;19.67;4.40;;;;;;;-145.18;100.00;46660.41;5112740;28;20024;-72
2022/10/25 04:18:58;;;;;;;15.93;4.30;;;;;;;-145.18;100.00;46662.34;5113020;28;20040;-71
2022/10/25 04:21:24;;;;;;;20.83;4.23;;;;;;;-145.18;100.00;46658.44;5113464;28;20093;-72
2022/10/25 04:23:50;;;;;;;15.10;4.37;;;;;;;-145.18;100.00;46658.44;5112998;28;20035;-71
2022/10/25 04:26:19;;;;;;;19.43;4.20;;;;;;;-145.18;100.00;46660.41;5112840;28;20039;-71
2022/10/25 04:28:53;;;;;;;15.13;4.30;;;;;;;-145.18;100.00;46660.41;5112964;28;20368;-71
2022/10/25 04:31:20;;;;;;;15.80;3.93;;;;;;;-145.18;100.00;46658.44;5112971;28;20038;-71
2022/10/25 04:33:53;;;;;;;12.13;4.03;;;;;;;-145.18;100.00;46658.44;5113052;28;20365;-72
2022/10/25 04:36:19;;;;;;;17.13;4.50;;;;;;;-145.18;100.00;46658.44;5109707;28;20036;-71
2022/10/25 04:38:52;;;;;;;16.73;4.27;;;;;;;-145.18;100.00;46660.41;5111982;28;20031;-71
2022/10/25 04:41:18;;;;;;;12.70;4.03;;;;;;;-145.18;100.00;46658.44;5112260;28;20038;-71
2022/10/25 04:43:44;;;;;;;15.17;4.20;;;;;;;-145.18;100.00;46656.50;5112151;28;20028;-71
2022/10/25 04:46:10;;;;;;;19.60;4.40;;;;;;;-145.18;100.00;46656.50;5112821;28;20039;-71
2022/10/25 04:48:37;;;;;;;14.47;4.27;;;;;;;-145.18;100.00;46662.34;5094023;28;20168;-71
2022/10/25 04:51:03;;;;;;;12.83;3.57;;;;;;;-145.18;100.00;46654.53;5100737;27;20118;-71
2022/10/25 04:53:28;;;;;;;11.43;4.03;;;;;;;-145.18;100.00;46658.44;5122469;27;20146;-71
2022/10/25 04:56:15;;;;;;;17.47;4.40;;;;;;;-145.18;100.00;46656.50;5124583;27;20087;-71
2022/10/25 04:58:40;;;;;;;10.73;4.20;;;;;;;-145.18;100.00;46660.41;5109435;28;20028;-71
2022/10/25 05:01:11;;;;;;;20.03;5.23;;;;;;;-145.18;100.00;46656.50;5111758;28;20089;-71
2022/10/25 05:03:37;;;;;;;20.60;4.80;;;;;;;-145.18;100.00;46658.44;5111276;28;20051;-72
2022/10/25 05:06:10;;;;;;;13.90;4.60;;;;;;;-145.18;100.00;46658.44;5110926;28;20028;-72
2022/10/25 05:08:39;;;;;;;17.83;4.40;;;;;;;-145.18;100.00;46660.41;5109438;28;20102;-71
2022/10/25 05:11:05;;;;;;;17.77;4.60;;;;;;;-145.18;100.00;46652.59;5111910;28;20031;-71
2022/10/25 05:13:34;;;;;;;17.93;5.17;;;;;;;-145.18;100.00;46656.50;5112271;28;20045;-71
2022/10/25 05:16:00;;;;;;;16.13;4.43;;;;;;;-145.18;100.00;46656.50;5111025;28;20111;-71
2022/10/25 05:18:25;;;;;;;18.47;4.83;;;;;;;-145.18;100.00;46658.44;5110397;28;20106;-71
2022/10/25 05:20:55;;;;;;;14.70;5.60;;;;;;;-145.18;100.00;46660.41;5111883;28;20479;-71
2022/10/25 05:23:22;;;;;;;12.20;4.43;;;;;;;-145.18;100.00;46660.41;5093690;28;20031;-72
2022/10/25 05:25:47;;;;;;;17.10;5.63;;;;;;;-145.18;100.00;46656.50;5112059;28;20028;-71
2022/10/25 05:28:13;;;;;;;11.93;5.00;;;;;;;-145.18;100.00;46656.50;5111482;28;20034;-71
2022/10/25 05:30:40;;;;;;;15.20;5.20;;;;;;;-145.18;100.00;46658.44;5111851;28;20123;-71
2022/10/25 05:33:06;;;;;;;17.97;5.60;;;;;;;-145.18;100.00;46658.44;5111561;28;20164;-71
2022/10/25 05:35:32;;;;;;;13.13;5.63;;;;;;;-145.18;100.00;46656.50;5111842;28;20053;-71
2022/10/25 05:37:57;;;;;;;10.50;5.30;;;;;;;-145.18;100.00;46652.59;5110889;28;20123;-71
2022/10/25 05:40:22;;;;;;;13.53;4.90;;;;;;;-145.18;100.00;46658.44;5093507;28;20036;-71
2022/10/25 05:42:48;;;;;;;19.53;6.53;;;;;;;-145.18;100.00;46658.44;5111470;28;20031;-71
2022/10/25 05:45:13;;;;;;;13.83;4.70;;;;;;;-145.18;100.00;46654.53;5111518;28;20118;-71
2022/10/25 05:47:38;;;;;;;15.90;4.93;;;;;;;-145.18;100.00;46662.34;5110399;28;20052;-71
2022/10/25 05:50:04;;;;;;;15.00;4.70;;;;;;;-145.18;100.00;46656.50;5109437;28;20058;-71
2022/10/25 05:52:29;;;;;;;19.87;6.60;;;;;;;-145.18;100.00;46664.31;5100385;27;20040;-71
2022/10/25 05:54:55;;;;;;;17.50;4.47;;;;;;;-145.18;100.00;46664.31;5107023;28;20032;-71
2022/10/25 05:57:20;;;;;;;11.40;4.03;;;;;;;-145.18;100.00;46660.41;5110322;28;20030;-71
2022/10/25 05:59:45;;;;;;;13.50;4.50;;;;;;;-145.18;100.00;46664.31;5098233;28;20115;-71
2022/10/25 06:02:11;;;;;;;17.77;5.47;;;;;;;-145.18;100.00;46662.34;5108890;28;20088;-71
2022/10/25 06:04:36;;;;;;;10.97;4.70;;;;;;;-145.18;100.00;46658.44;5110969;28;20060;-71
2022/10/25 06:07:01;;;;;;;16.27;4.73;;;;;;;-145.18;100.00;46660.41;5109233;28;20054;-71
2022/10/25 06:09:27;;;;;;;16.27;5.40;;;;;;;-145.18;100.00;46660.41;5106340;28;20047;-71
2022/10/25 06:11:52;;;;;;;14.00;5.33;;;;;;;-145.18;100.00;46660.41;5110861;28;20072;-71
2022/10/25 06:14:17;;;;;;;15.13;6.07;;;;;;;-145.18;100.00;46658.44;5110384;28;20032;-71
2022/10/25 06:16:43;;;;;;;15.37;5.50;;;;;;;-145.18;100.00;46656.50;5105442;28;20031;-71
2022/10/25 06:19:08;;;;;;;15.53;6.33;;;;;;;-145.18;100.00;46658.44;5107494;27;20046;-71
2022/10/25 06:21:33;;;;;;;19.43;6.40;;;;;;;-145.18;100.00;46664.31;5110721;28;20032;-71
2022/10/25 06:23:59;;;;;;;12.40;6.20;;;;;;;-145.18;100.00;46654.53;5110297;28;20391;-70
2022/10/25 06:26:26;;;;;;;16.97;6.10;;;;;;;-145.18;100.00;46664.31;5128134;27;20483;-70
2022/10/25 06:28:58;;;;;;;13.73;6.60;;;;;;;-145.18;100.00;46656.50;5128118;27;20105;-70
2022/10/25 06:31:24;;;;;;;13.83;7.47;;;;;;;-145.18;100.00;46662.34;5109785;28;20036;-71
2022/10/25 06:33:50;;;;;;;17.73;7.43;;;;;;;-145.18;100.00;46662.34;5110169;28;20080;-70
2022/10/25 06:36:20;;;;;;;14.40;7.73;;;;;;;-145.18;100.00;46662.34;5110415;28;20035;-70
2022/10/25 06:38:47;;;;;;;20.63;7.67;;;;;;;-145.18;100.00;46662.34;5108835;28;20039;-70
2022/10/25 06:41:15;;;;;;;19.20;7.73;;;;;;;-145.18;100.00;46660.41;5109740;28;20035;-70
2022/10/25 06:43:40;;;;;;;17.07;7.70;;;;;;;-145.18;100.00;46660.41;5110395;28;20031;-70
2022/10/25 06:46:16;;;;;;;16.63;8.07;;;;;;;-145.18;100.00;46660.41;5109915;28;20084;-73
2022/10/25 06:48:42;;;;;;;15.27;7.83;;;;;;;-145.18;100.00;46664.31;5110192;28;20019;-73
2022/10/25 06:51:10;;;;;;;17.73;8.67;;;;;;;-145.18;100.00;46660.41;5091656;28;20040;-72
2022/10/25 06:53:36;;;;;;;19.87;8.57;;;;;;;-145.18;100.00;46666.25;5110207;28;20030;-72
2022/10/25 06:56:04;;;;;;;22.17;8.40;;;;;;;-145.18;100.00;46660.41;5109992;28;20036;-72
2022/10/25 06:58:30;;;;;;;17.43;8.73;;;;;;;-145.18;100.00;46664.31;5110190;28;20070;-72
2022/10/25 07:01:00;;;;;;;20.37;9.13;;;;;;;-145.18;100.00;46662.34;5109038;28;20023;-72
2022/10/25 07:03:29;;;;;;;16.37;7.90;;;;;;;-145.18;100.00;46662.34;5110160;28;20079;-72
2022/10/25 07:05:58;;;;;;;17.63;8.30;;;;;;;-145.18;100.00;46660.41;5110265;28;20078;-70
2022/10/25 07:08:23;;;;;;;16.73;8.40;;;;;;;-145.18;100.00;46668.22;5110071;28;20023;-70
2022/10/25 07:10:55;;;;;;;18.90;7.60;;;;;;;-145.18;100.00;46668.22;5110050;28;20653;-69
2022/10/25 07:13:21;;;;;;;15.93;8.20;;;;;;;-145.18;100.00;46672.13;5109766;28;20027;-71
2022/10/25 07:15:46;;;;;;;16.80;7.70;;;;;;;-145.18;100.00;46666.25;5110040;28;20043;-72
2022/10/25 07:18:12;;;;;;;17.13;7.17;;;;;;;-145.18;100.00;46668.22;5109436;28;20500;-71
2022/10/25 07:20:37;;;;;;;14.97;7.33;;;;;;;-145.18;100.00;46670.16;5110058;28;20027;-69
2022/10/25 07:23:02;;;;;;;17.10;7.43;;;;;;;-145.18;100.00;46670.16;5090756;28;20039;-69
2022/10/25 07:25:28;;;;;;;18.00;9.00;;;;;;;-145.18;100.00;46676.03;5110041;28;20036;-70
2022/10/25 07:27:53;;;;;;;15.80;8.00;;;;;;;-145.18;100.00;46670.16;5109469;28;20015;-69
2022/10/25 07:30:19;;;;;;;13.57;7.50;;;;;;;-145.18;100.00;46672.13;5093135;28;20102;-70
2022/10/25 07:32:44;;;;;;;15.43;7.73;;;;;;;-145.18;100.00;46668.22;5113743;28;20024;-72
2022/10/25 07:35:09;;;;;;;13.47;7.80;;;;;;;-145.18;100.00;46676.03;5113818;28;20081;-70
2022/10/25 07:37:34;;;;;;;16.70;8.23;;;;;;;-145.18;100.00;46672.13;5113761;28;20024;-72
2022/10/25 07:40:00;;;;;;;22.23;8.37;;;;;;;-145.18;100.00;46666.25;5112980;28;20030;-69
2022/10/25 07:42:25;;;;;;;11.13;7.03;;;;;;;-145.18;100.00;46670.16;5095839;28;20526;-72
2022/10/25 07:44:51;;;;;;;21.77;8.87;;;;;;;-145.18;100.00;46676.03;5113403;28;20504;-70
2022/10/25 07:47:16;;;;;;;19.47;7.73;;;;;;;-145.18;100.00;46670.16;5113804;28;20545;-73
2022/10/25 07:49:41;;;;;;;20.00;8.43;;;;;;;-145.18;100.00;46677.97;5094887;28;20553;-72
2022/10/25 07:52:07;;;;;;;17.73;8.17;;;;;;;-145.18;100.00;46674.06;5112635;28;20393;-71
2022/10/25 07:54:32;;;;;;;23.07;7.87;;;;;;;-145.18;100.00;46674.06;5113304;28;20039;-71
2022/10/25 07:56:57;;;;;;;16.37;8.43;;;;;;;-145.18;100.00;46681.88;5113266;28;20063;-71
2022/10/25 07:59:23;;;;;;;18.23;8.10;;;;;;;-145.18;100.00;46676.03;5113284;28;20423;-71
2022/10/25 08:01:49;;;;;;;22.90;9.87;;;;;;;-145.18;100.00;46666.25;5112772;28;20046;-71
2022/10/25 08:04:15;;;;;;;19.17;9.07;;;;;;;-145.18;100.00;46672.13;5112697;28;20054;-71
2022/10/25 08:06:40;;;;;;;16.37;8.83;;;;;;;-145.18;100.00;46681.88;5113465;28;20023;-71
2022/10/25 08:09:06;;;;;;;19.53;8.13;;;;;;;-145.18;100.00;46679.94;5094615;28;20043;-71
2022/10/25 08:11:31;;;;;;;14.60;9.37;;;;;;;-145.18;100.00;46677.97;5112921;28;20062;-71
2022/10/25 08:13:56;;;;;;;13.50;8.30;;;;;;;-145.18;100.00;46677.97;5112870;28;20509;-71
2022/10/25 08:16:22;;;;;;;17.47;8.37;;;;;;;-145.18;100.00;46676.03;5113203;28;20110;-69
2022/10/25 08:18:47;;;;;;;19.73;8.80;;;;;;;-145.18;100.00;46679.94;5112842;28;20039;-72
2022/10/25 08:21:13;;;;;;;17.83;8.63;;;;;;;-145.18;100.00;46676.03;5112617;28;20055;-71
2022/10/25 08:23:39;;;;;;;18.63;8.63;;;;;;;-145.18;100.00;46676.03;5112162;28;20495;-70
2022/10/25 08:26:04;;;;;;;20.27;9.03;;;;;;;-145.18;100.00;46677.97;5112148;28;20035;-71
2022/10/25 08:28:30;;;;;;;19.20;9.33;;;;;;;-145.18;100.00;46677.97;5112584;28;20032;-71
2022/10/25 08:30:56;;;;;;;22.53;9.53;;;;;;;-145.18;100.00;46679.94;5112928;28;20062;-71
2022/10/25 08:33:22;;;;;;;16.63;8.63;;;;;;;-145.18;100.00;46672.13;5112458;28;20032;-71
2022/10/25 08:35:47;;;;;;;15.63;7.87;;;;;;;-145.18;100.00;46679.94;5113426;28;20035;-71
2022/10/25 08:38:13;;;;;;;20.70;8.67;;;;;;;-145.18;100.00;46676.03;5111293;28;20040;-71
2022/10/25 08:40:52;;;;;;;22.10;8.17;;;;;;;-145.18;100.00;46677.97;5093986;28;20045;-71
2022/10/25 08:43:35;;;;;;;19.03;8.20;;;;;;;-145.18;100.00;46676.03;5108583;28;20041;-71
2022/10/25 08:46:25;;;;;;;15.63;8.63;;;;;;;-145.18;100.00;46676.03;5111136;28;20047;-71
2022/10/25 08:49:01;;;;;;;18.00;8.50;;;;;;;-145.18;100.00;46677.97;5111116;28;20044;-71
2022/10/25 08:51:32;;;;;;;15.13;8.50;;;;;;;-145.18;100.00;46679.94;5112378;28;20033;-71
2022/10/25 08:54:05;;;;;;;20.00;7.87;;;;;;;-145.18;100.00;46685.78;5112167;28;20027;-72
2022/10/25 08:56:31;;;;;;;18.80;8.93;;;;;;;-145.18;100.00;46681.88;5112498;28;20030;-71
2022/10/25 08:59:00;;;;;;;26.23;13.70;;;;;;;-145.18;100.00;46681.88;5111210;28;20121;-72
2022/10/25 09:01:28;;;;;;;15.23;10.57;;;;;;;-145.18;100.00;46685.78;5111926;28;20624;-72
2022/10/25 09:03:54;;;;;;;15.97;7.97;;;;;;;-145.18;100.00;46685.78;5111723;28;20059;-72
2022/10/25 09:06:36;;;;;;;15.50;8.43;;;;;;;-145.18;100.00;46685.78;5112035;28;20101;-72
2022/10/25 09:09:08;;;;;;;16.53;8.00;;;;;;;-145.18;100.00;46691.66;5111749;28;20444;-72
2022/10/25 09:11:40;;;;;;;17.50;9.70;;;;;;;-145.18;100.00;46687.75;5111943;28;20024;-72
2022/10/25 09:14:28;;;;;;;17.27;9.13;;;;;;;-145.18;100.00;46687.75;5110989;28;20034;-72
2022/10/25 09:17:11;;;;;;;15.17;9.13;;;;;;;-145.18;100.00;46687.75;5096189;28;20396;-72
2022/10/25 09:20:03;;;;;;;18.57;9.23;;;;;;;-145.18;100.00;46691.66;5111709;28;20039;-72
2022/10/25 09:22:45;;;;;;;25.77;16.63;;;;;;;-145.18;100.00;46691.66;5111796;28;20031;-72
2022/10/25 09:25:27;;;;;;;21.70;12.33;;;;;;;-145.18;100.00;46685.78;5111601;28;20035;-71
2022/10/25 09:28:03;;;;;;;37.57;26.77;;;;;;;-145.18;100.00;46685.78;5111485;28;20037;-71
2022/10/25 09:30:38;;;;;;;38.65;30.48;;;;;;;-145.18;100.00;46687.75;5111931;28;20815;-72
2022/10/25 09:33:11;;;;;;;22.00;13.65;;;;;;;-145.18;100.00;46689.69;5110339;28;20028;-72
2022/10/25 09:35:51;;;;;;;21.23;13.23;;;;;;;-145.18;100.00;46687.75;5111317;28;20594;-72
2022/10/25 09:38:31;;;;;;;26.93;17.13;;;;;;;-145.18;100.00;46685.78;5111293;28;20031;-72
2022/10/25 09:41:02;;;;;;;19.73;14.07;;;;;;;-145.18;100.00;46685.78;5111836;28;20046;-72
2022/10/25 09:43:59;;;;;;;22.70;13.93;;;;;;;-145.18;100.00;46689.69;5111154;28;20032;-72
2022/10/25 09:46:33;;;;;;;18.73;12.00;;;;;;;-145.18;100.00;46689.69;5111378;28;20476;-72
2022/10/25 09:49:15;;;;;;;41.40;23.80;;;;;;;-145.18;100.00;46685.78;5110649;28;20038;-72
2022/10/25 09:52:26;;;;;;;29.23;14.83;;;;;;;-145.18;100.00;46685.78;5092802;28;20560;-71
2022/10/25 09:55:05;;;;;;;24.60;15.80;;;;;;;-145.18;100.00;46691.66;5076220;28;20050;-72
2022/10/25 09:57:31;;;;;;;24.80;11.87;;;;;;;-145.18;100.00;46693.59;5111112;28;20087;-72
2022/10/25 09:59:56;;;;;;;19.20;12.00;;;;;;;-145.18;100.00;46691.66;5110487;28;20548;-71
2022/10/25 10:02:24;;;;;;;40.07;18.57;;;;;;;-145.18;100.00;46685.78;5110569;28;20028;-71
2022/10/25 10:04:50;;;;;;;22.90;15.10;;;;;;;-145.18;100.00;46687.75;5092086;28;20492;-72
2022/10/25 10:07:31;;;;;;;26.00;14.43;;;;;;;-145.18;100.00;46687.75;5110560;28;20042;-71
2022/10/25 10:10:01;;;;;;;22.70;12.53;;;;;;;-145.18;100.00;46689.69;5108900;28;20034;-72
2022/10/25 10:12:46;;;;;;;14.07;8.70;;;;;;;-145.18;100.00;46691.66;5109524;28;20081;-71
2022/10/25 10:15:33;;;;;;;14.98;8.80;;;;;;;-145.18;100.00;46687.75;5092802;28;20077;-72
2022/10/25 10:18:35;;;;;;;16.27;10.73;;;;;;;-145.18;100.00;46691.66;5110234;28;20051;-72
2022/10/25 10:21:05;;;;;;;19.10;9.00;;;;;;;-145.18;100.00;46691.66;5110267;28;20027;-72
2022/10/25 10:23:40;;;;;;;26.33;18.67;;;;;;;-145.18;100.00;46693.59;5110294;28;20192;-72
2022/10/25 10:26:36;;;;;;;27.43;17.93;;;;;;;-145.18;100.00;46693.59;5109594;28;20026;-72
2022/10/25 10:29:07;;;;;;;23.98;13.82;;;;;;;-145.18;100.00;46699.47;5101539;28;20036;-72
2022/10/25 10:31:35;;;;;;;30.97;18.07;;;;;;;-145.18;100.00;46687.75;5110763;28;20124;-72
2022/10/25 10:34:01;;;;;;;24.60;11.73;;;;;;;-145.18;100.00;46693.59;5109928;28;20028;-71
2022/10/25 10:36:28;;;;;;;16.93;10.10;;;;;;;-145.18;100.00;46685.78;5115040;27;20471;-71
2022/10/25 10:39:12;;;;;;;15.60;9.80;;;;;;;-145.18;100.00;46689.69;5130798;27;20027;-71
2022/10/25 10:41:52;;;;;;;15.47;9.80;;;;;;;-145.18;100.00;46687.75;5131378;27;20110;-71
2022/10/25 10:44:17;;;;;;;18.33;9.17;;;;;;;-145.18;100.00;46685.78;5130583;27;20037;-71
2022/10/25 10:46:45;;;;;;;24.27;13.30;;;;;;;-145.18;100.00;46687.75;5112441;28;20039;-71
2022/10/25 10:49:12;;;;;;;19.20;11.17;;;;;;;-145.18;100.00;46691.66;5130459;27;20696;-72
2022/10/25 10:51:43;;;;;;;16.80;9.60;;;;;;;-145.18;100.00;46693.59;5131185;27;20122;-71
2022/10/25 10:54:28;;;;;;;22.93;13.33;;;;;;;-145.18;100.00;46693.59;5130459;27;20028;-72
2022/10/25 10:57:04;;;;;;;23.17;12.87;;;;;;;-145.18;100.00;46685.78;5130897;27;20068;-71
2022/10/25 10:59:35;;;;;;;26.67;13.40;;;;;;;-145.18;100.00;46683.84;5130660;28;20037;-72
2022/10/25 11:02:20;;;;;;;22.23;14.83;;;;;;;-145.18;100.00;46685.78;5115660;28;20031;-71
2022/10/25 11:04:49;;;;;;;20.43;10.27;;;;;;;-145.18;100.00;46679.94;5110576;28;20143;-71
2022/10/25 11:07:34;;;;;;;15.57;9.80;;;;;;;-145.18;100.00;46685.78;5114542;28;20036;-71
2022/10/25 11:10:18;;;;;;;23.27;10.83;;;;;;;-145.18;100.00;46683.84;5113891;28;20084;-71
2022/10/25 11:12:43;;;;;;;16.70;10.40;;;;;;;-145.18;100.00;46672.13;5095748;28;20433;-72
2022/10/25 11:15:13;;;;;;;19.60;10.27;;;;;;;-145.18;100.00;46642.81;5133584;27;20042;-72
2022/10/25 11:17:52;;;;;;;16.70;10.83;;;;;;;-145.18;100.00;46593.97;5120335;27;20140;-72